Eizan Maru No.18 — JD3750 — position and weather

sailwx.info

Track history (hours):
 
Tides and Currents Weather Stations Pressure Air Temp Water Temp Dewpoint Dewpoint Depression Visibility Wind Speed Wind Dir Waves Ship Positions

Eizan Maru No.18

Last reported at 2017-Dec-17 11:59 UTC. Time now 2017-Dec-17 12:05 UTC.
Position N 35°30' E 139°55'.

Length 104 m; draft 5.8 m.

Type: Tanker. MMSI: 431005734.

Date/timePositionNaut miles runAvg speedWind from/ knotsBaromVisibWave heightAir tempDewpointWater temp
2017-Dec-17 11:59N 35°30' E 139°55'0 0.0
2017-Dec-17 11:29N 35°30' E 139°55'0 0.0
2017-Dec-17 10:59N 35°30' E 139°55'0 0.0
2017-Dec-17 10:29N 35°30' E 139°55'0 0.0
2017-Dec-17 09:56N 35°30' E 139°55'0 0.0
2017-Dec-17 09:29N 35°30' E 139°55'0 0.0
2017-Dec-17 08:53N 35°30' E 139°55'0 0.0
2017-Dec-17 08:29N 35°30' E 139°55'0 0.0
2017-Dec-17 07:59N 35°30' E 139°55'0 0.0
2017-Dec-17 07:29N 35°30' E 139°55'0 0.0
2017-Dec-17 06:56N 35°30' E 139°55'0 0.0
2017-Dec-17 06:29N 35°30' E 139°55'0 0.0
2017-Dec-17 05:59N 35°30' E 139°55'0 0.0
2017-Dec-17 05:29N 35°30' E 139°55'0 0.0
2017-Dec-17 04:59N 35°30' E 139°55'0 0.0
2017-Dec-17 04:29N 35°30' E 139°55'0 0.0
2017-Dec-17 03:59N 35°30' E 139°55'0 0.0
2017-Dec-17 03:29N 35°30' E 139°55'0 0.0
2017-Dec-17 02:59N 35°30' E 139°55'0 0.1
2017-Dec-17 02:29N 35°30' E 139°55'0 0.0
2017-Dec-17 01:59N 35°30' E 139°55'0 0.0
2017-Dec-17 01:29N 35°30' E 139°55'0 0.0
2017-Dec-17 00:59N 35°30' E 139°55'0 0.1
2017-Dec-17 00:29N 35°30' E 139°55'0 0.0
2017-Dec-16 23:59N 35°30' E 139°55'0 0.0
2017-Dec-16 23:29N 35°30' E 139°55'0 0.0
2017-Dec-16 22:59N 35°30' E 139°55'0 0.0
2017-Dec-16 22:29N 35°30' E 139°55'0 0.0
2017-Dec-16 21:59N 35°30' E 139°55'0 0.1
2017-Dec-16 21:29N 35°30' E 139°55'0 0.0
2017-Dec-16 20:56N 35°30' E 139°55'0 0.0
2017-Dec-16 20:26N 35°30' E 139°55'0 0.1
2017-Dec-16 19:59N 35°30' E 139°55'0 0.1
2017-Dec-16 19:26N 35°30' E 139°55'0 0.0
2017-Dec-16 18:59N 35°30' E 139°55'0 0.1
2017-Dec-16 18:26N 35°30' E 139°55'0 0.1
2017-Dec-16 17:53N 35°30' E 139°55'0 0.0
2017-Dec-16 17:29N 35°30' E 139°55'0 0.1
2017-Dec-16 16:41N 35°30' E 139°55'0 0.0
2017-Dec-16 16:23N 35°30' E 139°55'0 0.0
2017-Dec-16 15:59N 35°30' E 139°55'0 0.0
2017-Dec-16 15:17N 35°30' E 139°55'0 0.1
2017-Dec-16 14:59N 35°30' E 139°55'0 0.0
2017-Dec-16 14:29N 35°30' E 139°55'0 0.1
2017-Dec-16 13:59N 35°30' E 139°55'0 0.0
2017-Dec-16 13:17N 35°30' E 139°55'0 0.2
2017-Dec-16 12:59N 35°30' E 139°55'0 0.2
2017-Dec-16 12:30N 35°30' E 139°55'510.2
2017-Dec-16 12:00N 35°27' E 139°50'713.2
2017-Dec-16 11:30N 35°22' E 139°45'611.6
2017-Dec-16 11:00N 35°16' E 139°46'612.9
2017-Dec-16 10:30N 35°10' E 139°46'714.7
2017-Dec-16 10:00N 35°02' E 139°44'711.9
2017-Dec-16 09:27N 34°56' E 139°45'510.8
2017-Dec-16 09:00N 34°53' E 139°50'9 9.7
2017-Dec-16 08:02N 34°55' E 140°01'2 9.8
2017-Dec-16 07:52N 34°56' E 140°03'4 9.9
2017-Dec-16 07:29N 34°57' E 140°07'510.3
2017-Dec-16 06:58N 34°60' E 140°12'5 9.3
2017-Dec-16 06:29N 35°01' E 140°18'388 9.7
2017-Dec-14 14:24N 41°24' E 141°32'615.0
2017-Dec-14 14:00N 41°30' E 141°34'714.7
2017-Dec-14 13:30N 41°37' E 141°33'713.8
2017-Dec-14 12:58N 41°45' E 141°33'  
2017-Dec-09 20:58N 41°46' E 141°41'1312.7
2017-Dec-09 19:57N 41°33' E 141°40'612.9
2017-Dec-09 19:29N 41°27' E 141°39'38812.5
2017-Dec-08 12:32N 35°04' E 140°27'315.0
2017-Dec-08 12:22N 35°02' E 140°24'615.4
2017-Dec-08 11:59N 35°00' E 140°17'815.8
2017-Dec-08 11:30N 34°57' E 140°09'814.9
2017-Dec-08 11:00N 34°54' E 140°01'714.4
2017-Dec-08 10:30N 34°51' E 139°53'714.4
2017-Dec-08 10:00N 34°54' E 139°44'815.3
2017-Dec-08 09:30N 35°01' E 139°42'714.8
2017-Dec-08 09:01N 35°08' E 139°45'713.4
2017-Dec-08 08:30N 35°15' E 139°46'612.4
2017-Dec-08 08:00N 35°20' E 139°42'612.4
2017-Dec-08 07:30N 35°26' E 139°45'713.4
2017-Dec-08 07:00N 35°30' E 139°52'2 3.1
2017-Dec-08 06:27N 35°29' E 139°54'0 0.0
2017-Dec-08 05:57N 35°29' E 139°54'0 0.7
2017-Dec-08 05:30N 35°29' E 139°54'510.9
2017-Dec-08 05:00N 35°30' E 140°01'1 1.1
2017-Dec-08 04:01N 35°30' E 140°02'0 0.0
2017-Dec-08 01:25N 35°30' E 140°02'0 0.0
2017-Dec-08 00:55N 35°30' E 140°02'0 0.0
2017-Dec-08 00:16N 35°30' E 140°02'0 0.0
2017-Dec-07 23:55N 35°30' E 140°02'0 0.4
2017-Dec-07 23:29N 35°30' E 140°02'3 6.7
2017-Dec-07 23:01N 35°32' E 139°59'0 0.2
2017-Dec-07 22:19N 35°32' E 139°59'0 0.0
2017-Dec-07 21:55N 35°32' E 139°59'0 0.1
2017-Dec-07 21:25N 35°32' E 139°59'0 0.1
2017-Dec-07 20:58N 35°32' E 139°59'0 0.1
2017-Dec-07 20:25N 35°32' E 139°59'0 0.0
2017-Dec-07 19:55N 35°32' E 139°59'0 0.0
2017-Dec-07 19:25N 35°32' E 139°59'0 0.0
2017-Dec-07 18:55N 35°32' E 139°59'0 0.0
2017-Dec-07 18:25N 35°32' E 139°59'0 0.1
2017-Dec-07 17:55N 35°32' E 139°59'0 0.0
2017-Dec-07 17:25N 35°32' E 139°59'0 0.0
2017-Dec-07 16:58N 35°32' E 139°59'0 0.0
2017-Dec-07 16:25N 35°32' E 139°59'0 0.0
2017-Dec-07 15:55N 35°32' E 139°59'0 0.0
2017-Dec-07 15:28N 35°32' E 139°59'0 0.1
2017-Dec-07 14:55N 35°32' E 139°59'0 0.1
2017-Dec-07 14:25N 35°32' E 139°59'0 0.0
2017-Dec-07 13:55N 35°32' E 139°59'0 0.1
2017-Dec-07 13:25N 35°32' E 139°59'0 0.0
2017-Dec-07 12:58N 35°32' E 139°59'0 0.1
2017-Dec-07 12:25N 35°32' E 139°59'  
Track history (hours):
 
Tides and Currents Weather Stations Pressure Air Temp Water Temp Dewpoint Dewpoint Depression Visibility Wind Speed Wind Dir Waves Ship Positions

Eizan Maru No.18

Last reported at 2017-Dec-17 11:59 UTC. Time now 2017-Dec-17 12:05 UTC.
Position N 35°30' E 139°55'.

Length 104 m; draft 5.8 m.

Type: Tanker. MMSI: 431005734.

Date/timePositionNaut miles runAvg speedWind from/ knotsBaromVisibWave heightAir tempDewpointWater temp
2017-Dec-17 11:59N 35°30' E 139°55'0 0.0
2017-Dec-17 11:29N 35°30' E 139°55'0 0.0
2017-Dec-17 10:59N 35°30' E 139°55'0 0.0
2017-Dec-17 10:29N 35°30' E 139°55'0 0.0
2017-Dec-17 09:56N 35°30' E 139°55'0 0.0
2017-Dec-17 09:29N 35°30' E 139°55'0 0.0
2017-Dec-17 08:53N 35°30' E 139°55'0 0.0
2017-Dec-17 08:29N 35°30' E 139°55'0 0.0
2017-Dec-17 07:59N 35°30' E 139°55'0 0.0
2017-Dec-17 07:29N 35°30' E 139°55'0 0.0
2017-Dec-17 06:56N 35°30' E 139°55'0 0.0
2017-Dec-17 06:29N 35°30' E 139°55'0 0.0
2017-Dec-17 05:59N 35°30' E 139°55'0 0.0
2017-Dec-17 05:29N 35°30' E 139°55'0 0.0
2017-Dec-17 04:59N 35°30' E 139°55'0 0.0
2017-Dec-17 04:29N 35°30' E 139°55'0 0.0
2017-Dec-17 03:59N 35°30' E 139°55'0 0.0
2017-Dec-17 03:29N 35°30' E 139°55'0 0.0
2017-Dec-17 02:59N 35°30' E 139°55'0 0.1
2017-Dec-17 02:29N 35°30' E 139°55'0 0.0
2017-Dec-17 01:59N 35°30' E 139°55'0 0.0
2017-Dec-17 01:29N 35°30' E 139°55'0 0.0
2017-Dec-17 00:59N 35°30' E 139°55'0 0.1
2017-Dec-17 00:29N 35°30' E 139°55'0 0.0
2017-Dec-16 23:59N 35°30' E 139°55'0 0.0
2017-Dec-16 23:29N 35°30' E 139°55'0 0.0
2017-Dec-16 22:59N 35°30' E 139°55'0 0.0
2017-Dec-16 22:29N 35°30' E 139°55'0 0.0
2017-Dec-16 21:59N 35°30' E 139°55'0 0.1
2017-Dec-16 21:29N 35°30' E 139°55'0 0.0
2017-Dec-16 20:56N 35°30' E 139°55'0 0.0
2017-Dec-16 20:26N 35°30' E 139°55'0 0.1
2017-Dec-16 19:59N 35°30' E 139°55'0 0.1
2017-Dec-16 19:26N 35°30' E 139°55'0 0.0
2017-Dec-16 18:59N 35°30' E 139°55'0 0.1
2017-Dec-16 18:26N 35°30' E 139°55'0 0.1
2017-Dec-16 17:53N 35°30' E 139°55'0 0.0
2017-Dec-16 17:29N 35°30' E 139°55'0 0.1
2017-Dec-16 16:41N 35°30' E 139°55'0 0.0
2017-Dec-16 16:23N 35°30' E 139°55'0 0.0
2017-Dec-16 15:59N 35°30' E 139°55'0 0.0
2017-Dec-16 15:17N 35°30' E 139°55'0 0.1
2017-Dec-16 14:59N 35°30' E 139°55'0 0.0
2017-Dec-16 14:29N 35°30' E 139°55'0 0.1
2017-Dec-16 13:59N 35°30' E 139°55'0 0.0
2017-Dec-16 13:17N 35°30' E 139°55'0 0.2
2017-Dec-16 12:59N 35°30' E 139°55'0 0.2
2017-Dec-16 12:30N 35°30' E 139°55'510.2
2017-Dec-16 12:00N 35°27' E 139°50'713.2
2017-Dec-16 11:30N 35°22' E 139°45'611.6
2017-Dec-16 11:00N 35°16' E 139°46'612.9
2017-Dec-16 10:30N 35°10' E 139°46'714.7
2017-Dec-16 10:00N 35°02' E 139°44'711.9
2017-Dec-16 09:27N 34°56' E 139°45'510.8
2017-Dec-16 09:00N 34°53' E 139°50'9 9.7
2017-Dec-16 08:02N 34°55' E 140°01'2 9.8
2017-Dec-16 07:52N 34°56' E 140°03'4 9.9
2017-Dec-16 07:29N 34°57' E 140°07'510.3
2017-Dec-16 06:58N 34°60' E 140°12'5 9.3
2017-Dec-16 06:29N 35°01' E 140°18'388 9.7
2017-Dec-14 14:24N 41°24' E 141°32'615.0
2017-Dec-14 14:00N 41°30' E 141°34'714.7
2017-Dec-14 13:30N 41°37' E 141°33'713.8
2017-Dec-14 12:58N 41°45' E 141°33'  
2017-Dec-09 20:58N 41°46' E 141°41'1312.7
2017-Dec-09 19:57N 41°33' E 141°40'612.9
2017-Dec-09 19:29N 41°27' E 141°39'38812.5
2017-Dec-08 12:32N 35°04' E 140°27'315.0
2017-Dec-08 12:22N 35°02' E 140°24'615.4
2017-Dec-08 11:59N 35°00' E 140°17'815.8
2017-Dec-08 11:30N 34°57' E 140°09'814.9
2017-Dec-08 11:00N 34°54' E 140°01'714.4
2017-Dec-08 10:30N 34°51' E 139°53'714.4
2017-Dec-08 10:00N 34°54' E 139°44'815.3
2017-Dec-08 09:30N 35°01' E 139°42'714.8
2017-Dec-08 09:01N 35°08' E 139°45'713.4
2017-Dec-08 08:30N 35°15' E 139°46'612.4
2017-Dec-08 08:00N 35°20' E 139°42'612.4
2017-Dec-08 07:30N 35°26' E 139°45'713.4
2017-Dec-08 07:00N 35°30' E 139°52'2 3.1
2017-Dec-08 06:27N 35°29' E 139°54'0 0.0
2017-Dec-08 05:57N 35°29' E 139°54'0 0.7
2017-Dec-08 05:30N 35°29' E 139°54'510.9
2017-Dec-08 05:00N 35°30' E 140°01'1 1.1
2017-Dec-08 04:01N 35°30' E 140°02'0 0.0
2017-Dec-08 01:25N 35°30' E 140°02'0 0.0
2017-Dec-08 00:55N 35°30' E 140°02'0 0.0
2017-Dec-08 00:16N 35°30' E 140°02'0 0.0
2017-Dec-07 23:55N 35°30' E 140°02'0 0.4
2017-Dec-07 23:29N 35°30' E 140°02'3 6.7
2017-Dec-07 23:01N 35°32' E 139°59'0 0.2
2017-Dec-07 22:19N 35°32' E 139°59'0 0.0
2017-Dec-07 21:55N 35°32' E 139°59'0 0.1
2017-Dec-07 21:25N 35°32' E 139°59'0 0.1
2017-Dec-07 20:58N 35°32' E 139°59'0 0.1
2017-Dec-07 20:25N 35°32' E 139°59'0 0.0
2017-Dec-07 19:55N 35°32' E 139°59'0 0.0
2017-Dec-07 19:25N 35°32' E 139°59'0 0.0
2017-Dec-07 18:55N 35°32' E 139°59'0 0.0
2017-Dec-07 18:25N 35°32' E 139°59'0 0.1
2017-Dec-07 17:55N 35°32' E 139°59'0 0.0
2017-Dec-07 17:25N 35°32' E 139°59'0 0.0
2017-Dec-07 16:58N 35°32' E 139°59'0 0.0
2017-Dec-07 16:25N 35°32' E 139°59'0 0.0
2017-Dec-07 15:55N 35°32' E 139°59'0 0.0
2017-Dec-07 15:28N 35°32' E 139°59'0 0.1
2017-Dec-07 14:55N 35°32' E 139°59'0 0.1
2017-Dec-07 14:25N 35°32' E 139°59'0 0.0
2017-Dec-07 13:55N 35°32' E 139°59'0 0.1
2017-Dec-07 13:25N 35°32' E 139°59'0 0.0
2017-Dec-07 12:58N 35°32' E 139°59'0 0.1
2017-Dec-07 12:25N 35°32' E 139°59'  

Dump ship's entire track history